Time;durP1;ratioP1;P1;durP2;ratioP2;P2;SDS_P1;SDS_P2;PMS_P1;PMS_P2;Temp;Humidity;BMP_temperature;BMP_pressure;BME280_temperature;BME280_humidity;BME280_pressure;Samples;Min_cycle;Max_cycle;Signal;HPM_P1;HPM_P2
2023/04/26 00:00:19;;;;;;;;;;;12.80;70.30;;;;;;4993616;28;88510;-41
2023/04/26 00:02:45;;;;;;;;;;;12.80;70.30;;;;;;4992183;28;87077;-41
2023/04/26 00:05:10;;;;;;;;;;;12.80;70.30;;;;;;4990174;28;88606;-41
2023/04/26 00:07:37;;;;;;;;;;;12.80;70.30;;;;;;4991343;28;90974;-40
2023/04/26 00:10:03;;;;;;;;;;;12.80;70.30;;;;;;4989584;28;87006;-40
2023/04/26 00:12:29;;;;;;;;;;;12.70;70.30;;;;;;4992374;28;89570;-41
2023/04/26 00:15:08;;;;;;;;;;;12.80;70.40;;;;;;4990261;28;87981;-41
2023/04/26 00:17:34;;;;;;;;;;;12.70;70.30;;;;;;4989316;28;87095;-41
2023/04/26 00:20:00;;;;;;;;;;;12.70;70.30;;;;;;4991399;28;89016;-40
2023/04/26 00:22:25;;;;;;;;;;;12.70;70.30;;;;;;4993992;28;89434;-40
2023/04/26 00:24:51;;;;;;;;;;;12.70;70.30;;;;;;4994224;28;89036;-41
2023/04/26 00:27:16;;;;;;;;;;;12.70;70.30;;;;;;4995198;28;87451;-41
2023/04/26 00:29:42;;;;;;;;;;;12.70;70.30;;;;;;4992978;28;87133;-40
2023/04/26 00:32:07;;;;;;;;;;;12.70;70.30;;;;;;4996333;28;87385;-40
2023/04/26 00:34:36;;;;;;;;;;;12.70;70.20;;;;;;4993029;28;87894;-41
2023/04/26 00:37:02;;;;;;;;;;;12.60;70.30;;;;;;4995162;28;86360;-41
2023/04/26 00:39:28;;;;;;;;;;;12.60;70.30;;;;;;4994240;28;87883;-41
2023/04/26 00:41:53;;;;;;;;;;;12.60;70.30;;;;;;4995667;28;87839;-40
2023/04/26 00:44:19;;;;;;;;;;;12.60;70.30;;;;;;4995479;28;87968;-40
2023/04/26 00:46:45;;;;;;;;;;;12.60;70.40;;;;;;4992205;28;88394;-40
2023/04/26 00:49:15;;;;;;;;;;;12.60;70.30;;;;;;4995085;28;87204;-41
2023/04/26 00:51:41;;;;;;;;;;;12.60;70.30;;;;;;4993984;28;88776;-40
2023/04/26 00:54:07;;;;;;;;;;;12.60;70.30;;;;;;4992623;28;89452;-41
2023/04/26 00:56:33;;;;;;;;;;;12.60;70.30;;;;;;4995337;28;87081;-41
2023/04/26 00:58:59;;;;;;;;;;;12.60;70.20;;;;;;4992279;28;89628;-40
2023/04/26 01:01:25;;;;;;;;;;;12.60;70.20;;;;;;4994749;28;88704;-40
2023/04/26 01:03:50;;;;;;;;;;;12.60;70.20;;;;;;4996290;28;87121;-40
2023/04/26 01:06:16;;;;;;;;;;;12.60;70.20;;;;;;4992902;28;89784;-40
2023/04/26 01:08:42;;;;;;;;;;;12.50;70.20;;;;;;4993909;28;88114;-40
2023/04/26 01:11:08;;;;;;;;;;;12.50;70.20;;;;;;4992198;28;87537;-40
2023/04/26 01:13:35;;;;;;;;;;;12.50;70.20;;;;;;4994935;28;89691;-40
2023/04/26 01:16:01;;;;;;;;;;;12.50;70.20;;;;;;4992117;28;87186;-40
2023/04/26 01:18:26;;;;;;;;;;;12.50;70.20;;;;;;4993925;28;88988;-40
2023/04/26 01:20:52;;;;;;;;;;;12.50;70.10;;;;;;4993381;28;89388;-40
2023/04/26 01:23:17;;;;;;;;;;;12.50;70.20;;;;;;4992750;28;87254;-40
2023/04/26 01:25:43;;;;;;;;;;;12.50;70.20;;;;;;4997644;28;88809;-40
2023/04/26 01:28:09;;;;;;;;;;;12.50;70.20;;;;;;4991441;28;87247;-40
2023/04/26 01:30:34;;;;;;;;;;;12.50;70.20;;;;;;4994705;28;87241;-40
2023/04/26 01:33:00;;;;;;;;;;;12.40;70.20;;;;;;4991711;28;91387;-40
2023/04/26 01:35:26;;;;;;;;;;;12.40;70.20;;;;;;4992201;28;87109;-40
2023/04/26 01:37:51;;;;;;;;;;;12.40;70.10;;;;;;4993818;28;88741;-40
2023/04/26 01:40:17;;;;;;;;;;;12.40;70.10;;;;;;4991453;28;89610;-40
2023/04/26 01:42:42;;;;;;;;;;;12.40;70.10;;;;;;4994981;28;87390;-40
2023/04/26 01:45:08;;;;;;;;;;;12.40;70.20;;;;;;4991774;28;88709;-40
2023/04/26 01:47:34;;;;;;;;;;;12.40;70.20;;;;;;4996644;28;89593;-40
2023/04/26 01:49:59;;;;;;;;;;;12.40;70.10;;;;;;4993444;28;88555;-40
2023/04/26 01:52:25;;;;;;;;;;;12.30;70.20;;;;;;4991854;28;88292;-40
2023/04/26 01:54:51;;;;;;;;;;;12.30;70.10;;;;;;4993774;28;87636;-40
2023/04/26 01:57:16;;;;;;;;;;;12.30;70.10;;;;;;4990802;28;87907;-41
2023/04/26 01:59:42;;;;;;;;;;;12.30;70.10;;;;;;4990634;28;89570;-40
2023/04/26 02:02:07;;;;;;;;;;;12.30;70.20;;;;;;4993737;28;87183;-40
2023/04/26 02:04:33;;;;;;;;;;;12.30;70.10;;;;;;4992222;28;88962;-40
2023/04/26 02:06:59;;;;;;;;;;;12.30;70.00;;;;;;4992145;28;89370;-40
2023/04/26 02:09:24;;;;;;;;;;;12.30;70.00;;;;;;4996448;28;87185;-40
2023/04/26 02:11:50;;;;;;;;;;;12.30;70.00;;;;;;4991030;28;89950;-40
2023/04/26 02:14:15;;;;;;;;;;;12.30;70.00;;;;;;4994155;28;86699;-40
2023/04/26 02:16:41;;;;;;;;;;;12.20;70.10;;;;;;4991449;28;88117;-40
2023/04/26 02:19:09;;;;;;;;;;;12.30;70.00;;;;;;4993274;28;87960;-40
2023/04/26 02:21:54;;;;;;;;;;;12.30;70.00;;;;;;4991984;28;88637;-40
2023/04/26 02:24:21;;;;;;;;;;;12.20;70.10;;;;;;4991584;28;89924;-40
2023/04/26 02:26:46;;;;;;;;;;;12.20;70.70;;;;;;4991521;28;89456;-40
2023/04/26 02:29:12;;;;;;;;;;;12.20;70.10;;;;;;4993479;28;87101;-41
2023/04/26 02:31:37;;;;;;;;;;;12.20;70.00;;;;;;4993491;28;88758;-40
2023/04/26 02:34:03;;;;;;;;;;;12.20;70.10;;;;;;4993594;28;87023;-40
2023/04/26 02:36:28;;;;;;;;;;;12.20;70.10;;;;;;4990935;28;89347;-40
2023/04/26 02:38:54;;;;;;;;;;;12.20;70.10;;;;;;4992649;28;88968;-40
2023/04/26 02:41:20;;;;;;;;;;;12.10;70.10;;;;;;4992049;28;87472;-40
2023/04/26 02:43:45;;;;;;;;;;;12.10;70.10;;;;;;4991822;28;87369;-40
2023/04/26 02:46:11;;;;;;;;;;;12.10;70.30;;;;;;4991754;28;90344;-40
2023/04/26 02:48:36;;;;;;;;;;;12.10;70.30;;;;;;4990199;28;87277;-40
2023/04/26 02:51:02;;;;;;;;;;;12.10;70.80;;;;;;4996178;28;88767;-40
2023/04/26 02:53:27;;;;;;;;;;;12.10;70.10;;;;;;4990521;28;87648;-40
2023/04/26 02:55:53;;;;;;;;;;;12.10;70.00;;;;;;4992625;28;87047;-40
2023/04/26 02:58:18;;;;;;;;;;;12.10;70.10;;;;;;4992076;28;89691;-40
2023/04/26 03:00:47;;;;;;;;;;;12.10;70.10;;;;;;4990939;28;87311;-40
2023/04/26 03:03:13;;;;;;;;;;;12.00;70.20;;;;;;4994149;28;89538;-40
2023/04/26 03:05:38;;;;;;;;;;;12.00;70.20;;;;;;4990340;28;88044;-40
2023/04/26 03:08:04;;;;;;;;;;;12.00;70.10;;;;;;4992042;28;87536;-40
2023/04/26 03:10:30;;;;;;;;;;;12.00;70.10;;;;;;4991162;28;88938;-40
2023/04/26 03:12:56;;;;;;;;;;;12.00;70.00;;;;;;4993635;28;89326;-40
2023/04/26 03:15:21;;;;;;;;;;;12.00;70.00;;;;;;4992452;28;87487;-40
2023/04/26 03:17:47;;;;;;;;;;;12.00;70.00;;;;;;4989887;28;88127;-40
2023/04/26 03:20:13;;;;;;;;;;;12.00;70.10;;;;;;4993591;28;87742;-40
2023/04/26 03:22:38;;;;;;;;;;;12.00;70.10;;;;;;4989285;28;88951;-40
2023/04/26 03:25:04;;;;;;;;;;;12.00;70.00;;;;;;4990890;28;87191;-40
2023/04/26 03:27:30;;;;;;;;;;;12.00;70.20;;;;;;4991853;28;86388;-40
2023/04/26 03:29:55;;;;;;;;;;;12.00;70.20;;;;;;4992781;28;87027;-40
2023/04/26 03:32:21;;;;;;;;;;;12.00;70.20;;;;;;4989287;28;89743;-40
2023/04/26 03:34:47;;;;;;;;;;;11.90;70.10;;;;;;4995212;28;87913;-40
2023/04/26 03:37:13;;;;;;;;;;;11.90;70.10;;;;;;4989821;28;89444;-40
2023/04/26 03:39:38;;;;;;;;;;;11.90;70.10;;;;;;4991583;28;87097;-40
2023/04/26 03:42:04;;;;;;;;;;;11.90;70.20;;;;;;4991623;28;87542;-41
2023/04/26 03:44:29;;;;;;;;;;;11.90;70.20;;;;;;4990059;28;89308;-40
2023/04/26 03:46:55;;;;;;;;;;;11.90;70.30;;;;;;4992452;28;87443;-40
2023/04/26 03:49:21;;;;;;;;;;;11.90;70.80;;;;;;4989336;28;88689;-40
2023/04/26 03:51:46;;;;;;;;;;;11.90;70.20;;;;;;4992389;28;87328;-40
2023/04/26 03:54:12;;;;;;;;;;;11.90;70.20;;;;;;4990293;28;87653;-40
2023/04/26 03:56:38;;;;;;;;;;;11.80;70.20;;;;;;4992211;28;87581;-40
2023/04/26 03:59:04;;;;;;;;;;;11.80;70.20;;;;;;4992814;28;88100;-40
2023/04/26 04:01:30;;;;;;;;;;;11.80;70.20;;;;;;4995923;28;87609;-40
2023/04/26 04:03:56;;;;;;;;;;;11.80;70.20;;;;;;4992684;28;89321;-41
2023/04/26 04:06:21;;;;;;;;;;;11.80;70.10;;;;;;4995887;28;86988;-40
2023/04/26 04:08:47;;;;;;;;;;;11.80;70.20;;;;;;4993681;28;88860;-40
2023/04/26 04:11:12;;;;;;;;;;;11.80;70.20;;;;;;4994465;28;88004;-40
2023/04/26 04:13:38;;;;;;;;;;;11.80;70.10;;;;;;4995130;28;87409;-40
2023/04/26 04:16:03;;;;;;;;;;;11.70;70.20;;;;;;4993511;28;88685;-40
2023/04/26 04:18:29;;;;;;;;;;;11.70;70.20;;;;;;4998547;28;89721;-40
2023/04/26 04:20:55;;;;;;;;;;;11.80;70.20;;;;;;4992649;28;89057;-40
2023/04/26 04:23:20;;;;;;;;;;;11.70;70.20;;;;;;4994214;28;88704;-40
2023/04/26 04:25:47;;;;;;;;;;;11.70;70.20;;;;;;4993819;28;87118;-40
2023/04/26 04:28:13;;;;;;;;;;;11.80;70.20;;;;;;4993684;28;88897;-40
2023/04/26 04:30:39;;;;;;;;;;;11.70;70.20;;;;;;4994628;28;89202;-40
2023/04/26 04:33:04;;;;;;;;;;;11.70;70.30;;;;;;4992778;28;87194;-40
2023/04/26 04:35:32;;;;;;;;;;;11.70;70.30;;;;;;4996187;28;87421;-40
2023/04/26 04:37:58;;;;;;;;;;;11.70;70.20;;;;;;4992936;28;88121;-40
2023/04/26 04:40:24;;;;;;;;;;;11.70;70.20;;;;;;4997278;28;86250;-40
2023/04/26 04:42:49;;;;;;;;;;;11.70;70.20;;;;;;4993914;28;89376;-40
2023/04/26 04:45:16;;;;;;;;;;;11.70;70.20;;;;;;4993145;28;87594;-40
2023/04/26 04:47:42;;;;;;;;;;;11.70;70.20;;;;;;4994884;28;88681;-40
2023/04/26 04:50:07;;;;;;;;;;;11.70;70.30;;;;;;4991799;28;89799;-40
2023/04/26 04:52:33;;;;;;;;;;;11.70;70.30;;;;;;4994633;28;87213;-40
2023/04/26 04:54:59;;;;;;;;;;;11.70;70.30;;;;;;4993281;28;88687;-40
2023/04/26 04:57:25;;;;;;;;;;;11.70;70.30;;;;;;4992680;28;89491;-40
2023/04/26 04:59:51;;;;;;;;;;;11.70;70.30;;;;;;4997683;28;87089;-40
2023/04/26 05:02:16;;;;;;;;;;;11.70;70.20;;;;;;4991688;28;88061;-40
2023/04/26 05:04:42;;;;;;;;;;;11.70;70.20;;;;;;4995861;28;86433;-40
2023/04/26 05:07:08;;;;;;;;;;;11.70;70.20;;;;;;4992526;28;88083;-40
2023/04/26 05:09:34;;;;;;;;;;;11.70;70.20;;;;;;4993228;28;89258;-40
2023/04/26 05:12:00;;;;;;;;;;;11.70;70.20;;;;;;4993039;28;88082;-40
2023/04/26 05:14:25;;;;;;;;;;;11.70;70.20;;;;;;4991420;28;89558;-40
2023/04/26 05:16:51;;;;;;;;;;;11.70;70.20;;;;;;4994641;28;89312;-41
2023/04/26 05:19:16;;;;;;;;;;;11.60;70.10;;;;;;4991779;28;87454;-40
2023/04/26 05:21:42;;;;;;;;;;;11.60;70.10;;;;;;4997133;28;88983;-40
2023/04/26 05:24:07;;;;;;;;;;;11.60;70.10;;;;;;4992911;28;87185;-40
2023/04/26 05:26:34;;;;;;;;;;;11.60;70.10;;;;;;4993765;28;87485;-40
2023/04/26 05:29:00;;;;;;;;;;;11.60;70.10;;;;;;4994247;28;88452;-40
2023/04/26 05:31:25;;;;;;;;;;;11.60;70.10;;;;;;4991773;28;87121;-40
2023/04/26 05:33:51;;;;;;;;;;;11.60;70.10;;;;;;4995025;28;88926;-40
2023/04/26 05:36:17;;;;;;;;;;;11.60;70.10;;;;;;4991271;28;90539;-40
2023/04/26 05:38:42;;;;;;;;;;;11.60;70.10;;;;;;4994660;28;87380;-40
2023/04/26 05:41:08;;;;;;;;;;;11.60;70.20;;;;;;4993406;28;88734;-40
2023/04/26 05:43:33;;;;;;;;;;;11.60;70.20;;;;;;4995597;28;88391;-40
2023/04/26 05:45:59;;;;;;;;;;;11.60;70.20;;;;;;4994754;28;87448;-40
2023/04/26 05:48:25;;;;;;;;;;;11.60;70.20;;;;;;4990887;28;89249;-40
2023/04/26 05:50:51;;;;;;;;;;;11.60;70.20;;;;;;4994717;28;87160;-40
2023/04/26 05:53:18;;;;;;;;;;;11.60;70.20;;;;;;4992324;28;88903;-40
2023/04/26 05:55:44;;;;;;;;;;;11.60;70.10;;;;;;4995334;28;89664;-40
2023/04/26 05:58:09;;;;;;;;;;;11.60;70.20;;;;;;4992335;28;87506;-40
2023/04/26 06:00:36;;;;;;;;;;;11.60;70.30;;;;;;4993946;28;87997;-40
2023/04/26 06:03:02;;;;;;;;;;;11.60;70.10;;;;;;4990661;28;87178;-40
2023/04/26 06:05:27;;;;;;;;;;;11.60;70.10;;;;;;4997228;28;87372;-40
2023/04/26 06:07:53;;;;;;;;;;;11.60;70.20;;;;;;4991802;28;88012;-40
2023/04/26 06:10:18;;;;;;;;;;;11.60;70.20;;;;;;4992742;28;87035;-40
2023/04/26 06:12:44;;;;;;;;;;;11.60;70.30;;;;;;4993885;28;87903;-40
2023/04/26 06:15:10;;;;;;;;;;;11.60;70.30;;;;;;4990763;28;89500;-40
2023/04/26 06:17:36;;;;;;;;;;;11.60;70.30;;;;;;4994799;28;86355;-40
2023/04/26 06:20:01;;;;;;;;;;;11.60;70.30;;;;;;4990434;28;88358;-40
2023/04/26 06:22:27;;;;;;;;;;;11.50;70.40;;;;;;4992992;28;89556;-40
2023/04/26 06:24:53;;;;;;;;;;;11.60;70.40;;;;;;4991483;28;88615;-40
2023/04/26 06:27:18;;;;;;;;;;;11.50;70.40;;;;;;4994740;28;89785;-40
2023/04/26 06:29:44;;;;;;;;;;;11.60;70.50;;;;;;4993537;28;87124;-41
2023/04/26 06:32:09;;;;;;;;;;;11.60;70.50;;;;;;4990812;28;88464;-40
2023/04/26 06:34:36;;;;;;;;;;;11.50;70.70;;;;;;4993635;28;88554;-40
2023/04/26 06:37:02;;;;;;;;;;;11.50;70.40;;;;;;4991102;28;87137;-40
2023/04/26 06:39:28;;;;;;;;;;;11.50;70.50;;;;;;4993022;28;87399;-40
2023/04/26 06:41:53;;;;;;;;;;;11.50;70.50;;;;;;4992725;28;88397;-40
2023/04/26 06:44:19;;;;;;;;;;;11.50;70.60;;;;;;4991428;28;87157;-40
2023/04/26 06:46:44;;;;;;;;;;;11.50;70.60;;;;;;4995961;28;87630;-40
2023/04/26 06:49:10;;;;;;;;;;;11.50;70.60;;;;;;4989953;28;88102;-40
2023/04/26 06:51:36;;;;;;;;;;;11.50;70.60;;;;;;4992877;28;89165;-40
2023/04/26 06:54:01;;;;;;;;;;;11.50;70.50;;;;;;4990620;28;89320;-40
2023/04/26 06:56:27;;;;;;;;;;;11.50;70.60;;;;;;4992035;28;87160;-40
2023/04/26 06:59:03;;;;;;;;;;;11.50;70.60;;;;;;4992789;28;87286;-40
2023/04/26 07:01:32;;;;;;;;;;;11.50;70.70;;;;;;4989583;28;89748;-40
2023/04/26 07:03:58;;;;;;;;;;;11.50;70.60;;;;;;4991753;28;87094;-40
2023/04/26 07:06:23;;;;;;;;;;;11.50;70.60;;;;;;4992693;28;86915;-40
2023/04/26 07:08:50;;;;;;;;;;;11.50;70.70;;;;;;4993031;28;89181;-40
2023/04/26 07:11:15;;;;;;;;;;;11.50;70.60;;;;;;4993318;28;88818;-40
2023/04/26 07:13:40;;;;;;;;;;;11.50;70.70;;;;;;4989148;28;88294;-40
2023/04/26 07:16:06;;;;;;;;;;;11.50;71.20;;;;;;4992264;28;87154;-40
2023/04/26 07:18:32;;;;;;;;;;;11.50;70.70;;;;;;4991203;28;87538;-40
2023/04/26 07:20:57;;;;;;;;;;;11.50;70.60;;;;;;4991079;28;87976;-40
2023/04/26 07:23:23;;;;;;;;;;;11.50;70.60;;;;;;4992608;28;87461;-40
2023/04/26 07:25:48;;;;;;;;;;;11.50;70.60;;;;;;4990206;28;88975;-40
2023/04/26 07:28:14;;;;;;;;;;;11.50;70.50;;;;;;4992989;28;89536;-40
2023/04/26 07:30:40;;;;;;;;;;;11.50;70.50;;;;;;4993931;28;86661;-40
2023/04/26 07:33:06;;;;;;;;;;;11.50;70.40;;;;;;4990585;28;89308;-40
2023/04/26 07:35:34;;;;;;;;;;;11.40;70.40;;;;;;4991684;28;87187;-40
2023/04/26 07:37:59;;;;;;;;;;;11.50;70.40;;;;;;4990223;28;88810;-40
2023/04/26 07:40:25;;;;;;;;;;;11.50;70.30;;;;;;4992997;28;89359;-40
2023/04/26 07:42:52;;;;;;;;;;;11.50;70.30;;;;;;4989745;28;87191;-40
2023/04/26 07:45:18;;;;;;;;;;;11.50;70.20;;;;;;4992847;28;87439;-40
2023/04/26 07:47:44;;;;;;;;;;;11.50;70.30;;;;;;4990840;28;89250;-40
2023/04/26 07:50:10;;;;;;;;;;;11.50;70.30;;;;;;4991203;28;87125;-40
2023/04/26 07:52:35;;;;;;;;;;;11.50;70.10;;;;;;4994701;28;89197;-40
2023/04/26 07:55:01;;;;;;;;;;;11.50;70.20;;;;;;4990543;28;86661;-40
2023/04/26 07:57:26;;;;;;;;;;;11.50;70.10;;;;;;4993089;28;88217;-40
2023/04/26 07:59:52;;;;;;;;;;;11.60;70.10;;;;;;4989541;28;88685;-40
2023/04/26 08:02:17;;;;;;;;;;;11.50;70.20;;;;;;4990683;28;88101;-40
2023/04/26 08:04:47;;;;;;;;;;;11.50;70.10;;;;;;4990691;28;88162;-40
2023/04/26 08:07:12;;;;;;;;;;;11.50;70.10;;;;;;4989238;28;89398;-40
2023/04/26 08:09:38;;;;;;;;;;;11.50;70.10;;;;;;4992385;28;87071;-40
2023/04/26 08:12:03;;;;;;;;;;;11.50;70.10;;;;;;4989748;28;87728;-40
2023/04/26 08:14:29;;;;;;;;;;;11.50;70.10;;;;;;4993555;28;89392;-41
2023/04/26 08:16:55;;;;;;;;;;;11.50;70.10;;;;;;4990815;28;89089;-41
2023/04/26 08:19:20;;;;;;;;;;;11.50;70.00;;;;;;4990356;28;89126;-40
2023/04/26 08:21:46;;;;;;;;;;;11.60;70.00;;;;;;4991350;28;88138;-40
2023/04/26 08:24:11;;;;;;;;;;;11.50;70.10;;;;;;4989379;28;87512;-40
2023/04/26 08:26:37;;;;;;;;;;;11.50;70.00;;;;;;4991400;28;90430;-40
2023/04/26 08:29:02;;;;;;;;;;;11.50;70.60;;;;;;4989547;28;87122;-40
2023/04/26 08:31:28;;;;;;;;;;;11.50;70.00;;;;;;4991816;28;87383;-40
2023/04/26 08:33:53;;;;;;;;;;;11.50;69.90;;;;;;4990816;28;88190;-40
2023/04/26 08:36:19;;;;;;;;;;;11.50;69.80;;;;;;4992899;28;87396;-40
2023/04/26 08:38:45;;;;;;;;;;;11.50;69.90;;;;;;4991302;28;89462;-40
2023/04/26 08:41:13;;;;;;;;;;;11.50;69.90;;;;;;4988483;28;87161;-40
2023/04/26 08:43:38;;;;;;;;;;;11.50;69.90;;;;;;4992696;28;88598;-40
2023/04/26 08:46:06;;;;;;;;;;;11.50;69.80;;;;;;4992683;28;87939;-40
2023/04/26 08:48:33;;;;;;;;;;;11.50;69.80;;;;;;4993040;28;87139;-40
2023/04/26 08:51:00;;;;;;;;;;;11.50;69.90;;;;;;4994016;28;88934;-40
2023/04/26 08:53:26;;;;;;;;;;;11.50;69.90;;;;;;4995113;28;89444;-40
2023/04/26 08:55:52;;;;;;;;;;;11.50;69.90;;;;;;4995490;28;86982;-40
2023/04/26 08:58:18;;;;;;;;;;;11.50;69.80;;;;;;4993876;28;89720;-40
2023/04/26 09:00:44;;;;;;;;;;;11.50;69.90;;;;;;4993834;28;87225;-40
2023/04/26 09:03:10;;;;;;;;;;;11.50;69.90;;;;;;4992730;28;88949;-40
2023/04/26 09:05:38;;;;;;;;;;;11.50;69.90;;;;;;4994442;28;89282;-40
2023/04/26 09:08:05;;;;;;;;;;;11.50;69.70;;;;;;4992474;28;86380;-40
2023/04/26 09:10:31;;;;;;;;;;;11.50;69.70;;;;;;4994381;28;87028;-40
2023/04/26 09:12:57;;;;;;;;;;;11.50;69.80;;;;;;4992698;28;89194;-40
2023/04/26 09:15:23;;;;;;;;;;;11.50;69.70;;;;;;4992141;28;88191;-40
2023/04/26 09:17:50;;;;;;;;;;;11.50;69.80;;;;;;4997071;28;89885;-40
2023/04/26 09:20:21;;;;;;;;;;;11.50;69.80;;;;;;4991364;28;87238;-40
2023/04/26 09:22:48;;;;;;;;;;;11.50;70.30;;;;;;4993643;28;88679;-40
2023/04/26 09:25:15;;;;;;;;;;;11.50;69.70;;;;;;4993284;28;87946;-40
2023/04/26 09:27:42;;;;;;;;;;;11.50;69.80;;;;;;4992255;28;87153;-40
2023/04/26 09:30:16;;;;;;;;;;;11.50;69.80;;;;;;4994838;28;89311;-40
2023/04/26 09:32:43;;;;;;;;;;;11.50;69.90;;;;;;4992599;28;88726;-40
2023/04/26 09:35:17;;;;;;;;;;;11.50;69.90;;;;;;4992174;28;87164;-40
2023/04/26 09:37:50;;;;;;;;;;;11.50;69.90;;;;;;4991732;28;88755;-40
2023/04/26 09:40:19;;;;;;;;;;;11.50;70.00;;;;;;4995309;28;88914;-40
2023/04/26 09:42:45;;;;;;;;;;;11.50;69.90;;;;;;4993698;28;89560;-40
2023/04/26 09:45:11;;;;;;;;;;;11.50;69.70;;;;;;4990392;28;89280;-40
2023/04/26 09:47:36;;;;;;;;;;;11.60;69.70;;;;;;4994192;28;87085;-40
2023/04/26 09:50:02;;;;;;;;;;;11.50;69.60;;;;;;4991755;28;87866;-40
2023/04/26 09:52:28;;;;;;;;;;;11.60;69.70;;;;;;4993028;28;89372;-40
2023/04/26 09:54:54;;;;;;;;;;;11.50;69.60;;;;;;4992899;28;87166;-40
2023/04/26 09:57:21;;;;;;;;;;;11.50;69.80;;;;;;4992453;28;87365;-40
2023/04/26 09:59:47;;;;;;;;;;;11.50;69.60;;;;;;4994119;28;88058;-40
2023/04/26 10:02:22;;;;;;;;;;;11.50;69.70;;;;;;4994320;28;87184;-40
2023/04/26 10:04:49;;;;;;;;;;;11.50;69.70;;;;;;4990936;28;90479;-40
2023/04/26 10:07:16;;;;;;;;;;;11.50;69.60;;;;;;4994108;28;87569;-40
2023/04/26 10:09:42;;;;;;;;;;;11.50;69.60;;;;;;4990458;28;88876;-40
2023/04/26 10:12:11;;;;;;;;;;;11.60;69.60;;;;;;4992714;28;89430;-40
2023/04/26 10:14:36;;;;;;;;;;;11.60;69.60;;;;;;4991692;28;87145;-40
2023/04/26 10:17:03;;;;;;;;;;;11.60;69.60;;;;;;4991897;28;88749;-40
2023/04/26 10:19:29;;;;;;;;;;;11.60;69.60;;;;;;4993451;28;89303;-40
2023/04/26 10:21:58;;;;;;;;;;;11.60;69.50;;;;;;4990972;28;86353;-40
2023/04/26 10:24:24;;;;;;;;;;;11.60;69.50;;;;;;4995515;28;88128;-40
2023/04/26 10:26:55;;;;;;;;;;;11.60;69.40;;;;;;4991663;28;87685;-40
2023/04/26 10:29:21;;;;;;;;;;;11.50;69.50;;;;;;4990393;28;88791;-40
2023/04/26 10:32:05;;;;;;;;;;;11.50;69.60;;;;;;4993557;28;88025;-40
2023/04/26 10:34:35;;;;;;;;;;;11.60;69.40;;;;;;4993143;28;87197;-40
2023/04/26 10:37:10;;;;;;;;;;;11.60;69.40;;;;;;4990010;28;88951;-40
2023/04/26 10:39:37;;;;;;;;;;;11.60;69.50;;;;;;4990976;28;89527;-40
2023/04/26 10:42:31;;;;;;;;;;;11.60;69.40;;;;;;4992618;28;87240;-40
2023/04/26 10:45:17;;;;;;;;;;;11.60;69.40;;;;;;4988894;28;88785;-40
2023/04/26 10:47:42;;;;;;;;;;;11.60;69.40;;;;;;4995622;28;87621;-40
2023/04/26 10:50:09;;;;;;;;;;;11.60;69.30;;;;;;4989916;28;88248;-40
2023/04/26 10:52:54;;;;;;;;;;;11.60;69.20;;;;;;4992527;28;89451;-40
2023/04/26 10:55:40;;;;;;;;;;;11.60;69.20;;;;;;4992753;28;88145;-40
2023/04/26 10:58:25;;;;;;;;;;;11.60;69.30;;;;;;4992831;28;89809;-40
2023/04/26 11:01:03;;;;;;;;;;;11.70;69.10;;;;;;4992175;28;88328;-40
2023/04/26 11:03:29;;;;;;;;;;;11.70;68.90;;;;;;4990697;28;87165;-40
2023/04/26 11:05:55;;;;;;;;;;;11.70;68.80;;;;;;4993854;28;89032;-40
2023/04/26 11:08:25;;;;;;;;;;;11.60;68.80;;;;;;4993298;28;88483;-40
2023/04/26 11:10:57;;;;;;;;;;;11.60;68.80;;;;;;4993132;28;88879;-40
2023/04/26 11:13:23;;;;;;;;;;;11.70;68.80;;;;;;4991484;28;87508;-40
2023/04/26 11:16:08;;;;;;;;;;;11.70;68.90;;;;;;4990966;28;87168;-40
2023/04/26 11:18:34;;;;;;;;;;;11.70;68.80;;;;;;4991259;28;87406;-40
2023/04/26 11:21:00;;;;;;;;;;;11.70;69.40;;;;;;4990471;28;90566;-40
2023/04/26 11:23:27;;;;;;;;;;;11.70;69.00;;;;;;4991546;28;87507;-40
2023/04/26 11:25:53;;;;;;;;;;;11.70;68.90;;;;;;4990086;28;88805;-40
2023/04/26 11:28:21;;;;;;;;;;;11.70;68.80;;;;;;4989501;28;87814;-40
2023/04/26 11:30:47;;;;;;;;;;;11.70;68.80;;;;;;4995337;28;87788;-40
2023/04/26 11:33:21;;;;;;;;;;;11.70;68.70;;;;;;4990711;28;89413;-40
2023/04/26 11:35:48;;;;;;;;;;;11.70;68.40;;;;;;4989545;28;87355;-40
2023/04/26 11:38:14;;;;;;;;;;;11.70;68.50;;;;;;4990031;28;88249;-40
2023/04/26 11:40:40;;;;;;;;;;;11.70;68.40;;;;;;4991476;28;88045;-40
2023/04/26 11:43:07;;;;;;;;;;;11.70;68.30;;;;;;4990987;28;87149;-40
2023/04/26 11:45:34;;;;;;;;;;;11.70;68.60;;;;;;4990098;28;88005;-40
2023/04/26 11:48:04;;;;;;;;;;;11.70;68.70;;;;;;4992624;28;89431;-40
2023/04/26 11:50:36;;;;;;;;;;;11.70;68.70;;;;;;4989688;28;87157;-40
2023/04/26 11:53:03;;;;;;;;;;;11.70;68.90;;;;;;4992805;28;89017;-40
2023/04/26 11:55:31;;;;;;;;;;;11.70;68.70;;;;;;4992397;28;87649;-40
2023/04/26 11:57:57;;;;;;;;;;;11.70;68.70;;;;;;4989528;28;89252;-40
2023/04/26 12:00:23;;;;;;;;;;;11.70;68.50;;;;;;4992167;28;90050;-40
2023/04/26 12:02:49;;;;;;;;;;;11.70;68.60;;;;;;4989930;28;86387;-40
2023/04/26 12:05:20;;;;;;;;;;;11.70;68.30;;;;;;4990407;28;87908;-40
2023/04/26 12:07:51;;;;;;;;;;;11.70;68.30;;;;;;4992257;28;87923;-40
2023/04/26 12:10:17;;;;;;;;;;;11.70;68.40;;;;;;4988488;28;88007;-40
2023/04/26 12:12:47;;;;;;;;;;;11.70;68.20;;;;;;4990919;28;88264;-40
2023/04/26 12:15:13;;;;;;;;;;;11.80;68.40;;;;;;4993414;28;89311;-40
2023/04/26 12:17:38;;;;;;;;;;;11.70;68.30;;;;;;4989405;28;87492;-40
2023/04/26 12:20:10;;;;;;;;;;;11.70;68.20;;;;;;4994549;28;89467;-40
2023/04/26 12:22:35;;;;;;;;;;;11.80;67.70;;;;;;4993860;28;87169;-40
2023/04/26 12:25:09;;;;;;;;;;;11.80;68.00;;;;;;4993818;28;89115;-40
2023/04/26 12:27:34;;;;;;;;;;;11.80;68.20;;;;;;4995841;28;88312;-40
2023/04/26 12:30:00;;;;;;;;;;;11.70;67.90;;;;;;4992429;28;87471;-40
2023/04/26 12:32:25;;;;;;;;;;;11.70;68.20;;;;;;4994384;28;87767;-40
2023/04/26 12:34:51;;;;;;;;;;;11.80;68.20;;;;;;4992028;28;90397;-40
2023/04/26 12:37:16;;;;;;;;;;;11.80;67.70;;;;;;4996307;28;87433;-40
2023/04/26 12:39:43;;;;;;;;;;;11.80;68.20;;;;;;4994270;28;88214;-40
2023/04/26 12:42:08;;;;;;;;;;;11.80;68.50;;;;;;4991719;28;87711;-40
2023/04/26 12:44:35;;;;;;;;;;;11.80;67.30;;;;;;4995373;28;87866;-40
2023/04/26 12:47:00;;;;;;;;;;;11.80;68.10;;;;;;4992270;28;89764;-40
2023/04/26 12:49:28;;;;;;;;;;;11.80;68.10;;;;;;4993905;28;87111;-40
2023/04/26 12:51:53;;;;;;;;;;;11.80;68.00;;;;;;4994541;28;88633;-40
2023/04/26 12:54:19;;;;;;;;;;;11.80;67.60;;;;;;4991492;28;89273;-40
2023/04/26 12:56:45;;;;;;;;;;;11.90;67.50;;;;;;4994759;28;87678;-40
2023/04/26 12:59:10;;;;;;;;;;;11.90;67.10;;;;;;4993282;28;89009;-40
2023/04/26 13:01:36;;;;;;;;;;;11.90;67.70;;;;;;4994048;28;87376;-40
2023/04/26 13:04:04;;;;;;;;;;;11.90;67.50;;;;;;4992886;28;88674;-40
2023/04/26 13:06:31;;;;;;;;;;;11.90;66.80;;;;;;4992487;28;89378;-40
2023/04/26 13:08:56;;;;;;;;;;;11.90;67.70;;;;;;4994352;28;87171;-40
2023/04/26 13:11:22;;;;;;;;;;;11.90;67.40;;;;;;4991843;28;87401;-40
2023/04/26 13:13:48;;;;;;;;;;;11.90;67.50;;;;;;4993717;28;89474;-40
2023/04/26 13:16:13;;;;;;;;;;;11.90;67.50;;;;;;4992330;28;86703;-40
2023/04/26 13:18:40;;;;;;;;;;;12.00;67.20;;;;;;4995682;28;87024;-40
2023/04/26 13:21:05;;;;;;;;;;;11.90;66.80;;;;;;4993015;28;87169;-40
2023/04/26 13:23:31;;;;;;;;;;;12.00;67.10;;;;;;4990733;28;89166;-40
2023/04/26 13:25:56;;;;;;;;;;;12.00;67.10;;;;;;4993890;28;88775;-40
2023/04/26 13:28:22;;;;;;;;;;;12.00;67.10;;;;;;4990020;28;87110;-40
2023/04/26 13:30:47;;;;;;;;;;;12.00;67.20;;;;;;4992154;28;89024;-40
2023/04/26 13:33:13;;;;;;;;;;;12.00;67.10;;;;;;4990079;28;89441;-40
2023/04/26 13:35:38;;;;;;;;;;;11.90;67.10;;;;;;4992759;28;87042;-40
2023/04/26 13:38:04;;;;;;;;;;;12.00;66.80;;;;;;4991526;28;87375;-40
2023/04/26 13:40:29;;;;;;;;;;;12.00;66.70;;;;;;4997087;28;87873;-40
2023/04/26 13:42:55;;;;;;;;;;;12.00;66.60;;;;;;4990815;28;87468;-40
2023/04/26 13:45:20;;;;;;;;;;;12.10;66.70;;;;;;4993584;28;89380;-40
2023/04/26 13:47:46;;;;;;;;;;;12.00;66.60;;;;;;4991104;28;88490;-40
2023/04/26 13:50:11;;;;;;;;;;;12.00;66.80;;;;;;4993354;28;88290;-40
2023/04/26 13:52:37;;;;;;;;;;;12.00;66.90;;;;;;4992875;28;89471;-40
2023/04/26 13:55:03;;;;;;;;;;;12.00;66.90;;;;;;4991045;28;87589;-40
2023/04/26 13:57:28;;;;;;;;;;;12.00;66.80;;;;;;4994576;28;89016;-40
2023/04/26 13:59:54;;;;;;;;;;;12.00;66.90;;;;;;4990140;28;89342;-40
2023/04/26 14:02:20;;;;;;;;;;;12.00;66.90;;;;;;4996357;28;87489;-40
2023/04/26 14:04:45;;;;;;;;;;;12.00;66.50;;;;;;4992728;28;87471;-40
2023/04/26 14:07:11;;;;;;;;;;;12.00;66.90;;;;;;4992756;28;87053;-40
2023/04/26 14:09:36;;;;;;;;;;;12.00;66.70;;;;;;4993280;28;88727;-40
2023/04/26 14:12:02;;;;;;;;;;;12.00;66.80;;;;;;4989420;28;90713;-40